createdAt,value
2022-10-05T00:02:22.580Z,7.40
2022-10-05T00:04:54.153Z,7.40
2022-10-05T00:07:22.997Z,7.40
2022-10-05T00:09:56.289Z,7.40
2022-10-05T00:12:24.693Z,7.40
2022-10-05T00:14:55.375Z,7.30
2022-10-05T00:17:26.467Z,7.30
2022-10-05T00:22:31.721Z,7.30
2022-10-05T00:25:00.623Z,7.20
2022-10-05T00:27:39.362Z,7.30
2022-10-05T00:30:17.034Z,7.10
2022-10-05T00:35:12.928Z,7.30
2022-10-05T00:40:30.750Z,7.30
2022-10-05T00:43:19.161Z,7.30
2022-10-05T00:45:56.772Z,7.30
2022-10-05T00:48:53.192Z,7.30
2022-10-05T00:51:29.854Z,7.30
2022-10-05T00:54:05.130Z,7.30
2022-10-05T00:56:37.758Z,7.30
2022-10-05T00:59:23.119Z,7.30
2022-10-05T01:02:13.661Z,7.30
2022-10-05T01:07:32.541Z,7.30
2022-10-05T01:10:15.975Z,7.00
2022-10-05T01:13:07.171Z,7.20
2022-10-05T01:20:54.379Z,7.20
2022-10-05T01:23:32.750Z,7.10
2022-10-05T01:26:35.705Z,7.20
2022-10-05T01:29:22.926Z,7.20
2022-10-05T01:39:30.176Z,7.00
2022-10-05T01:42:37.577Z,7.00
2022-10-05T01:45:22.219Z,7.10
2022-10-05T01:48:03.641Z,7.00
2022-10-05T01:50:55.312Z,7.00
2022-10-05T01:53:46.437Z,7.00
2022-10-05T02:01:49.092Z,7.10
2022-10-05T02:04:56.413Z,7.10
2022-10-05T02:07:15.193Z,7.10
2022-10-05T02:09:47.635Z,7.10
2022-10-05T02:12:19.418Z,7.10
2022-10-05T02:14:55.048Z,7.00
2022-10-05T02:17:32.341Z,7.00
2022-10-05T02:20:07.875Z,7.00
2022-10-05T02:22:43.754Z,7.00
2022-10-05T02:25:17.256Z,6.90
2022-10-05T02:27:56.707Z,6.90
2022-10-05T02:33:00.189Z,6.70
2022-10-05T02:38:14.265Z,6.70
2022-10-05T02:41:13.151Z,6.70
2022-10-05T02:43:53.636Z,6.60
2022-10-05T02:46:28.967Z,6.60
2022-10-05T02:49:16.883Z,6.60
2022-10-05T02:52:05.890Z,6.60
2022-10-05T02:54:53.519Z,6.60
2022-10-05T02:57:39.033Z,6.60
2022-10-05T03:00:22.781Z,6.70
2022-10-05T03:02:58.729Z,6.70
2022-10-05T03:05:48.253Z,6.70
2022-10-05T03:11:29.784Z,6.70
2022-10-05T03:14:18.695Z,6.70
2022-10-05T03:17:20.536Z,6.60
2022-10-05T03:22:33.240Z,6.70
2022-10-05T03:25:36.155Z,6.70
2022-10-05T03:28:35.502Z,6.60
2022-10-05T03:31:14.728Z,6.40
2022-10-05T03:33:58.723Z,6.40
2022-10-05T03:36:59.626Z,6.40
2022-10-05T03:39:31.028Z,6.40
2022-10-05T03:42:08.243Z,6.40
2022-10-05T03:44:41.171Z,6.40
2022-10-05T03:47:16.774Z,6.40
2022-10-05T03:49:49.398Z,6.40
2022-10-05T03:52:24.982Z,6.40
2022-10-05T03:55:13.337Z,6.40
2022-10-05T03:57:43.264Z,6.50
2022-10-05T04:00:17.483Z,6.50
2022-10-05T04:02:53.221Z,6.50
2022-10-05T04:05:27.934Z,6.40
2022-10-05T04:10:27.331Z,6.20
2022-10-05T04:13:06.780Z,6.20
2022-10-05T04:15:43.107Z,6.20
2022-10-05T04:18:27.836Z,6.20
2022-10-05T04:21:00.002Z,6.20
2022-10-05T04:24:01.632Z,6.30
2022-10-05T04:26:55.718Z,6.30
2022-10-05T04:29:31.511Z,6.30
2022-10-05T04:32:04.149Z,6.30
2022-10-05T04:35:04.767Z,6.30
2022-10-05T04:38:16.216Z,6.30
2022-10-05T04:41:10.162Z,6.30
2022-10-05T04:46:20.297Z,6.20
2022-10-05T04:49:03.494Z,6.30
2022-10-05T04:54:07.062Z,6.30
2022-10-05T04:56:40.104Z,6.30
2022-10-05T04:59:18.815Z,6.30
2022-10-05T05:02:03.550Z,6.20
2022-10-05T05:07:19.928Z,6.30
2022-10-05T05:10:24.301Z,6.30
2022-10-05T05:13:21.822Z,6.20
2022-10-05T05:16:06.982Z,6.20
2022-10-05T05:18:48.695Z,6.20
2022-10-05T05:21:38.017Z,6.10
2022-10-05T05:24:23.521Z,6.10
2022-10-05T05:27:10.526Z,6.10
2022-10-05T05:30:06.184Z,6.00
2022-10-05T05:32:58.595Z,6.00
2022-10-05T05:38:26.437Z,5.90
2022-10-05T05:41:12.628Z,5.90
2022-10-05T05:44:17.328Z,5.80
2022-10-05T05:47:04.731Z,6.00
2022-10-05T05:49:59.991Z,5.90
2022-10-05T05:52:39.379Z,6.00
2022-10-05T05:55:20.338Z,6.00
2022-10-05T05:57:54.668Z,6.10
2022-10-05T06:00:26.644Z,6.20
2022-10-05T06:03:24.146Z,6.20
2022-10-05T06:06:04.277Z,6.20
2022-10-05T06:08:43.377Z,6.10
2022-10-05T06:11:21.818Z,6.30
2022-10-05T06:16:36.897Z,6.10
2022-10-05T06:19:17.198Z,6.30
2022-10-05T06:22:03.313Z,6.40
2022-10-05T06:25:08.503Z,6.40
2022-10-05T06:27:57.792Z,6.50
2022-10-05T06:30:26.774Z,6.60
2022-10-05T06:33:21.852Z,6.60
2022-10-05T06:38:48.024Z,6.90
2022-10-05T06:41:50.324Z,7.00
2022-10-05T06:44:24.725Z,7.10
2022-10-05T06:47:05.155Z,7.20
2022-10-05T06:49:41.855Z,7.30
2022-10-05T06:52:25.474Z,7.30
2022-10-05T06:55:17.455Z,7.40
2022-10-05T06:58:00.777Z,7.40
2022-10-05T07:00:59.541Z,7.60
2022-10-05T07:10:57.882Z,8.00
2022-10-05T07:16:03.680Z,8.20
2022-10-05T07:18:54.984Z,8.30
2022-10-05T07:21:39.616Z,8.40
2022-10-05T07:24:24.293Z,8.60
2022-10-05T07:26:58.427Z,8.70
2022-10-05T07:29:38.346Z,8.80
2022-10-05T07:32:23.546Z,8.90
2022-10-05T07:35:09.555Z,9.00
2022-10-05T07:37:57.068Z,9.20
2022-10-05T07:40:38.042Z,9.30
2022-10-05T07:43:21.816Z,9.40
2022-10-05T07:45:57.274Z,9.40
2022-10-05T07:48:43.387Z,9.50
2022-10-05T07:51:20.845Z,9.70
2022-10-05T07:54:12.462Z,9.80
2022-10-05T07:56:46.531Z,9.90
2022-10-05T07:59:27.712Z,10.20
2022-10-05T08:02:20.322Z,10.70
2022-10-05T08:05:09.713Z,10.20
2022-10-05T08:07:37.344Z,10.40
2022-10-05T08:12:44.650Z,10.60
2022-10-05T08:15:18.568Z,10.90
2022-10-05T08:18:05.918Z,10.90
2022-10-05T08:20:40.741Z,11.10
2022-10-05T08:25:55.759Z,11.20
2022-10-05T08:28:32.042Z,11.30
2022-10-05T08:31:16.925Z,11.40
2022-10-05T08:33:54.796Z,11.60
2022-10-05T08:36:44.905Z,11.70
2022-10-05T08:39:18.864Z,12.00
2022-10-05T08:41:52.780Z,12.10
2022-10-05T08:44:28.462Z,12.20
2022-10-05T08:47:27.116Z,12.30
2022-10-05T08:50:08.525Z,12.50
2022-10-05T08:52:50.029Z,12.60
2022-10-05T09:00:23.504Z,12.90
2022-10-05T09:03:05.878Z,13.10
2022-10-05T09:05:49.711Z,13.30
2022-10-05T09:08:42.053Z,13.40
2022-10-05T09:11:23.741Z,13.50
2022-10-05T09:14:11.652Z,13.70
2022-10-05T09:17:07.853Z,13.80
2022-10-05T09:20:15.068Z,14.00
2022-10-05T09:22:59.923Z,13.90
2022-10-05T09:25:44.124Z,14.20
2022-10-05T09:28:31.525Z,14.30
2022-10-05T09:31:16.344Z,14.30
2022-10-05T09:33:43.181Z,14.40
2022-10-05T09:36:47.537Z,14.20
2022-10-05T09:39:23.241Z,14.50
2022-10-05T09:42:15.440Z,14.30
2022-10-05T09:45:00.551Z,14.80
2022-10-05T09:50:23.321Z,14.70
2022-10-05T09:53:05.671Z,14.80
2022-10-05T09:56:05.270Z,14.70
2022-10-05T10:01:36.404Z,15.10
2022-10-05T10:04:26.569Z,15.20
2022-10-05T10:09:36.512Z,15.40
2022-10-05T10:12:16.972Z,15.50
2022-10-05T10:15:19.002Z,15.50
2022-10-05T10:18:19.794Z,15.60
2022-10-05T10:21:20.280Z,15.50
2022-10-05T10:24:11.861Z,15.50
2022-10-05T10:27:11.959Z,15.60
2022-10-05T10:30:18.894Z,16.00
2022-10-05T10:35:51.749Z,16.00
2022-10-05T10:38:40.398Z,16.20
2022-10-05T10:41:28.760Z,16.30
2022-10-05T10:44:33.876Z,16.60
2022-10-05T10:47:25.235Z,16.30
2022-10-05T10:50:23.498Z,16.60
2022-10-05T10:53:14.627Z,16.80
2022-10-05T10:56:18.127Z,17.00
2022-10-05T10:59:09.157Z,16.90
2022-10-05T11:02:12.358Z,16.90
2022-10-05T11:05:16.674Z,17.10
2022-10-05T11:08:07.798Z,17.40
2022-10-05T11:11:05.389Z,17.70
2022-10-05T11:13:53.759Z,17.40
2022-10-05T11:17:19.361Z,18.20
2022-10-05T11:20:05.043Z,17.70
2022-10-05T11:22:47.304Z,17.80
2022-10-05T11:25:44.447Z,17.60
2022-10-05T11:29:04.055Z,17.80
2022-10-05T11:31:33.687Z,17.70
2022-10-05T11:37:02.986Z,17.70
2022-10-05T11:39:43.624Z,18.00
2022-10-05T11:45:06.267Z,18.10
2022-10-05T11:47:44.234Z,18.20
2022-10-05T11:52:50.780Z,18.10
2022-10-05T11:55:22.105Z,18.30
2022-10-05T11:57:56.639Z,18.30
2022-10-05T12:00:27.343Z,18.40
2022-10-05T12:03:15.095Z,18.60
2022-10-05T12:05:51.672Z,18.30
2022-10-05T12:11:00.883Z,18.70
2022-10-05T12:13:30.434Z,18.50
2022-10-05T12:16:03.066Z,18.30
2022-10-05T12:18:34.051Z,18.60
2022-10-05T12:21:34.655Z,18.50
2022-10-05T12:24:16.696Z,18.40
2022-10-05T12:26:52.030Z,18.50
2022-10-05T12:29:43.801Z,18.50
2022-10-05T12:32:17.178Z,18.40
2022-10-05T12:35:36.177Z,18.90
2022-10-05T12:38:19.968Z,18.70
2022-10-05T12:40:59.944Z,19.10
2022-10-05T12:43:35.091Z,19.00
2022-10-05T12:49:10.812Z,18.60
2022-10-05T12:51:59.205Z,18.70
2022-10-05T12:54:42.666Z,18.80
2022-10-05T12:57:39.979Z,19.00
2022-10-05T13:00:22.452Z,19.40
2022-10-05T13:02:54.244Z,19.00
2022-10-05T13:05:49.295Z,19.10
2022-10-05T13:10:52.990Z,19.10
2022-10-05T13:13:40.404Z,19.10
2022-10-05T13:16:31.666Z,19.30
2022-10-05T13:19:06.536Z,19.30
2022-10-05T13:22:03.053Z,19.30
2022-10-05T13:24:59.510Z,19.80
2022-10-05T13:27:36.756Z,19.10
2022-10-05T13:30:13.293Z,19.40
2022-10-05T13:32:48.099Z,19.00
2022-10-05T13:35:25.446Z,19.60
2022-10-05T13:38:15.018Z,19.30
2022-10-05T13:41:00.266Z,19.10
2022-10-05T13:43:39.598Z,19.40
2022-10-05T13:46:44.481Z,19.20
2022-10-05T13:49:33.122Z,20.00
2022-10-05T13:52:20.138Z,19.60
2022-10-05T13:55:06.828Z,19.60
2022-10-05T13:57:57.490Z,19.60
2022-10-05T14:00:26.942Z,19.60
2022-10-05T14:02:56.833Z,19.40
2022-10-05T14:05:29.573Z,19.50
2022-10-05T14:08:02.417Z,19.20
2022-10-05T14:10:40.667Z,19.40
2022-10-05T14:13:28.772Z,19.60
2022-10-05T14:16:15.401Z,19.40
2022-10-05T14:19:08.275Z,19.60
2022-10-05T14:21:49.621Z,19.10
2022-10-05T14:24:52.343Z,19.40
2022-10-05T14:27:23.495Z,19.40
2022-10-05T14:30:03.044Z,19.40
2022-10-05T14:32:47.653Z,19.30
2022-10-05T14:35:17.196Z,19.20
2022-10-05T14:37:50.672Z,19.30
2022-10-05T14:40:38.346Z,19.40
2022-10-05T14:43:14.352Z,19.30
2022-10-05T14:45:53.224Z,19.60
2022-10-05T14:50:56.184Z,19.70
2022-10-05T14:53:38.747Z,19.50
2022-10-05T14:56:20.297Z,19.40
2022-10-05T14:59:08.924Z,19.30
2022-10-05T15:01:40.156Z,19.40
2022-10-05T15:04:42.875Z,19.00
2022-10-05T15:07:25.100Z,19.60
2022-10-05T15:09:54.882Z,19.30
2022-10-05T15:12:32.448Z,19.30
2022-10-05T15:15:14.016Z,19.20
2022-10-05T15:17:47.598Z,19.20
2022-10-05T15:20:59.899Z,19.30
2022-10-05T15:23:43.020Z,19.10
2022-10-05T15:28:48.450Z,19.00
2022-10-05T15:34:10.837Z,19.00
2022-10-05T15:39:43.372Z,19.20
2022-10-05T15:42:19.687Z,18.90
2022-10-05T15:47:21.004Z,18.80
2022-10-05T15:50:00.955Z,18.70
2022-10-05T15:52:36.078Z,18.60
2022-10-05T15:57:45.363Z,18.70
2022-10-05T16:02:52.140Z,18.60
2022-10-05T16:05:56.440Z,18.50
2022-10-05T16:08:56.237Z,18.30
2022-10-05T16:11:47.675Z,18.30
2022-10-05T16:14:48.114Z,18.20
2022-10-05T16:17:40.740Z,17.90
2022-10-05T16:20:27.106Z,17.90
2022-10-05T16:23:39.077Z,18.00
2022-10-05T16:26:24.529Z,18.00
2022-10-05T16:29:05.414Z,18.00
2022-10-05T16:31:47.316Z,17.60
2022-10-05T16:34:38.568Z,17.50
2022-10-05T16:37:33.224Z,17.30
2022-10-05T16:40:22.125Z,17.40
2022-10-05T16:43:00.916Z,17.70
2022-10-05T16:50:30.923Z,17.10
2022-10-05T16:53:09.804Z,16.70
2022-10-05T16:55:42.888Z,16.90
2022-10-05T16:58:26.873Z,16.80
2022-10-05T17:01:08.510Z,16.90
2022-10-05T17:03:50.449Z,16.80
2022-10-05T17:06:31.135Z,16.30
2022-10-05T17:09:29.003Z,16.60
2022-10-05T17:12:20.389Z,16.30
2022-10-05T17:15:29.541Z,16.30
2022-10-05T17:18:04.214Z,16.20
2022-10-05T17:20:44.048Z,16.10
2022-10-05T17:23:42.910Z,16.00
2022-10-05T17:26:53.287Z,16.30
2022-10-05T17:29:24.892Z,16.00
2022-10-05T17:32:08.119Z,15.60
2022-10-05T17:34:38.776Z,15.70
2022-10-05T17:37:37.319Z,15.60
2022-10-05T17:40:28.886Z,15.40
2022-10-05T17:43:01.337Z,15.60
2022-10-05T17:45:34.149Z,15.30
2022-10-05T17:48:05.682Z,15.30
2022-10-05T17:51:06.270Z,15.20
2022-10-05T17:54:03.676Z,15.00
2022-10-05T17:56:47.555Z,15.10
2022-10-05T17:59:44.625Z,15.00
2022-10-05T18:02:23.383Z,15.20
2022-10-05T18:05:03.412Z,14.90
2022-10-05T18:07:34.617Z,14.80
2022-10-05T18:10:04.459Z,14.80
2022-10-05T18:12:37.647Z,14.70
2022-10-05T18:15:07.456Z,14.70
2022-10-05T18:20:30.244Z,14.60
2022-10-05T18:23:03.163Z,14.60
2022-10-05T18:25:36.267Z,14.80
2022-10-05T18:28:33.931Z,14.20
2022-10-05T18:31:21.246Z,14.70
2022-10-05T18:33:54.161Z,14.50
2022-10-05T18:36:48.907Z,14.50
2022-10-05T18:39:47.383Z,14.60
2022-10-05T18:42:53.804Z,14.40
2022-10-05T18:45:38.003Z,14.20
2022-10-05T18:48:35.596Z,14.30
2022-10-05T18:51:28.427Z,14.60
2022-10-05T18:54:26.980Z,14.20
2022-10-05T18:56:54.367Z,14.20
2022-10-05T19:02:11.033Z,14.10
2022-10-05T19:05:01.870Z,13.70
2022-10-05T19:08:08.789Z,14.30
2022-10-05T19:10:44.820Z,14.00
2022-10-05T19:13:24.441Z,14.00
2022-10-05T19:18:42.115Z,13.90
2022-10-05T19:21:30.388Z,14.10
2022-10-05T19:24:22.036Z,14.00
2022-10-05T19:27:26.211Z,14.10
2022-10-05T19:30:15.538Z,13.70
2022-10-05T19:33:05.024Z,13.70
2022-10-05T19:35:59.242Z,13.80
2022-10-05T19:38:34.755Z,13.40
2022-10-05T19:41:15.450Z,13.50
2022-10-05T19:44:09.967Z,13.60
2022-10-05T19:46:45.164Z,13.50
2022-10-05T19:51:50.564Z,13.50
2022-10-05T19:54:29.896Z,13.30
2022-10-05T19:56:59.846Z,13.20
2022-10-05T19:59:31.398Z,13.20
2022-10-05T20:01:59.676Z,13.10
2022-10-05T20:04:43.212Z,13.00
2022-10-05T20:07:15.782Z,13.00
2022-10-05T20:09:52.676Z,13.00
2022-10-05T20:15:25.319Z,12.90
2022-10-05T20:20:44.504Z,12.40
2022-10-05T20:23:25.277Z,13.10
2022-10-05T20:26:11.183Z,12.70
2022-10-05T20:31:08.378Z,12.70
2022-10-05T20:48:36.076Z,12.30
2022-10-05T21:01:12.921Z,11.90
2022-10-05T21:03:39.823Z,12.00
2022-10-05T21:18:40.406Z,12.00
2022-10-05T21:33:24.927Z,11.50
2022-10-05T21:45:43.038Z,11.70
2022-10-05T21:48:10.806Z,11.80
2022-10-05T21:50:38.729Z,12.00
2022-10-05T21:53:09.795Z,11.70
2022-10-05T21:55:39.507Z,11.90
2022-10-05T22:15:17.010Z,11.60
2022-10-05T22:17:45.170Z,11.70
2022-10-05T22:20:14.456Z,11.40
2022-10-05T22:30:05.720Z,11.30
2022-10-05T22:37:27.084Z,11.00
2022-10-05T22:44:49.402Z,11.40
2022-10-05T22:54:37.908Z,11.10
2022-10-05T23:06:53.963Z,10.80
2022-10-05T23:11:52.020Z,11.10
2022-10-05T23:14:19.565Z,10.70
2022-10-05T23:21:41.770Z,10.70
2022-10-05T23:31:31.992Z,10.60
2022-10-05T23:36:31.382Z,10.50
2022-10-05T23:46:22.709Z,10.60
